Time;durP1;ratioP1;P1;durP2;ratioP2;P2;SDS_P1;SDS_P2;PMS_P1;PMS_P2;Temp;Humidity;BMP_temperature;BMP_pressure;BME280_temperature;BME280_humidity;BME280_pressure;Samples;Min_cycle;Max_cycle;Signal;HPM_P1;HPM_P2
2022/04/14 00:00:14;;;;;;;33.75;14.05;;;;;;;10.51;100.00;101436.97;5008898;28;20178;-74
2022/04/14 00:02:39;;;;;;;34.03;14.48;;;;;;;10.46;100.00;101441.03;5026520;28;20533;-75
2022/04/14 00:05:06;;;;;;;31.15;13.48;;;;;;;10.39;100.00;101438.09;5026725;28;20029;-76
2022/04/14 00:07:31;;;;;;;;;;;;;;;10.48;100.00;101449.75;5027105;28;20506;-74
2022/04/14 00:09:56;;;;;;;;;;;;;;;10.43;100.00;101454.69;5009329;28;19916;-76
2022/04/14 00:12:22;;;;;;;31.43;12.33;;;;;;;10.30;100.00;101447.84;5026101;28;20070;-74
2022/04/14 00:14:47;;;;;;;32.80;12.47;;;;;;;10.26;100.00;101450.91;5026528;28;20360;-75
2022/04/14 00:17:13;;;;;;;31.77;12.40;;;;;;;10.29;100.00;101466.66;5026678;28;20291;-75
2022/04/14 00:19:40;;;;;;;30.47;13.90;;;;;;;10.32;100.00;101471.69;5008799;28;20040;-74
2022/04/14 00:22:05;;;;;;;32.38;14.68;;;;;;;10.32;100.00;101461.00;5002908;28;20047;-75
2022/04/14 00:24:30;;;;;;;36.23;14.83;;;;;;;10.24;100.00;101448.34;5008680;28;20025;-75
2022/04/14 00:26:56;;;;;;;42.63;14.63;;;;;;;10.22;100.00;101447.66;5005708;28;20041;-76
2022/04/14 00:29:21;;;;;;;34.20;13.57;;;;;;;10.21;100.00;101445.13;5025948;28;20033;-75
2022/04/14 00:31:47;;;;;;;38.80;16.77;;;;;;;10.20;100.00;101446.13;5008253;28;20637;-74
2022/04/14 00:34:12;;;;;;;42.17;14.50;;;;;;;10.12;100.00;101444.16;5026368;28;20377;-74
2022/04/14 00:36:38;;;;;;;27.47;14.33;;;;;;;10.10;100.00;101454.13;5026082;28;20033;-75
2022/04/14 00:39:03;;;;;;;36.93;15.10;;;;;;;10.10;100.00;101452.31;5008416;28;20029;-74
2022/04/14 00:41:28;;;;;;;36.47;15.40;;;;;;;10.11;100.00;101459.34;5007671;28;20505;-75
2022/04/14 00:43:55;;;;;;;35.87;13.80;;;;;;;10.06;100.00;101452.72;5025860;28;20044;-75
2022/04/14 00:46:21;;;;;;;29.50;13.38;;;;;;;10.03;100.00;101453.88;5008430;28;20407;-75
2022/04/14 00:48:48;;;;;;;35.05;13.80;;;;;;;10.07;100.00;101462.44;5025936;28;20036;-74
2022/04/14 00:51:14;;;;;;;34.58;15.32;;;;;;;10.11;100.00;101469.16;5007902;28;20205;-74
2022/04/14 00:53:39;;;;;;;31.27;13.85;;;;;;;10.07;100.00;101463.28;5025782;28;20025;-74
2022/04/14 00:56:06;;;;;;;34.50;13.55;;;;;;;10.01;100.00;101463.81;5025594;28;20032;-75
2022/04/14 00:58:32;;;;;;;30.25;15.35;;;;;;;10.00;100.00;101467.50;5008178;28;20029;-75
2022/04/14 01:00:57;;;;;;;30.17;15.43;;;;;;;9.96;100.00;101471.41;5025496;28;20087;-74
2022/04/14 01:03:23;;;;;;;32.83;15.20;;;;;;;9.94;100.00;101468.03;5025815;28;20475;-74
2022/04/14 01:05:49;;;;;;;41.35;16.40;;;;;;;9.89;100.00;101459.63;5025605;28;20448;-73
2022/04/14 01:08:17;;;;;;;39.22;15.43;;;;;;;9.87;100.00;101458.91;5025828;28;20040;-75
2022/04/14 01:10:47;;;;;;;33.85;15.48;;;;;;;9.89;100.00;101459.63;5007650;28;20040;-74
2022/04/14 01:13:14;;;;;;;38.00;15.73;;;;;;;9.90;100.00;101461.28;5007728;28;20057;-74
2022/04/14 01:15:39;;;;;;;35.90;15.85;;;;;;;9.90;100.00;101462.16;5008092;28;20064;-74
2022/04/14 01:18:05;;;;;;;36.73;15.93;;;;;;;9.87;100.00;101456.25;5007977;28;20569;-74
2022/04/14 01:20:31;;;;;;;32.83;14.37;;;;;;;9.87;100.00;101450.91;5025050;28;20049;-75
2022/04/14 01:23:00;;;;;;;36.30;15.48;;;;;;;9.87;100.00;101461.59;5022681;28;20268;-74
2022/04/14 01:25:26;;;;;;;39.88;16.25;;;;;;;9.83;100.00;101452.19;5025288;28;20425;-74
2022/04/14 01:27:51;;;;;;;31.92;16.02;;;;;;;9.87;100.00;101450.91;5007658;28;20407;-74
2022/04/14 01:30:17;;;;;;;39.73;15.80;;;;;;;9.81;100.00;101465.66;5044543;22;20223;-75
2022/04/14 01:32:42;;;;;;;33.33;14.33;;;;;;;9.85;100.00;101463.56;5027184;28;20743;-75
2022/04/14 01:35:08;;;;;;;26.73;13.60;;;;;;;9.83;100.00;101461.03;5033638;28;20034;-75
2022/04/14 01:37:34;;;;;;;36.50;16.05;;;;;;;9.80;100.00;101449.78;5035828;28;20020;-75
2022/04/14 01:39:59;;;;;;;38.50;15.80;;;;;;;9.83;100.00;101455.72;5031426;28;20418;-75
2022/04/14 01:42:25;;;;;;;37.42;15.10;;;;;;;9.80;100.00;101449.78;5008533;28;20462;-75
2022/04/14 01:44:50;;;;;;;41.90;16.40;;;;;;;9.75;100.00;101441.38;5015831;28;20041;-75
2022/04/14 01:47:16;;;;;;;39.90;14.87;;;;;;;9.77;100.00;101439.41;5002479;28;20021;-75
2022/04/14 01:49:41;;;;;;;47.47;15.57;;;;;;;9.73;100.00;101437.00;5018042;28;20548;-75
2022/04/14 01:52:07;;;;;;;42.20;15.40;;;;;;;9.75;100.00;101436.06;5018513;28;20037;-76
2022/04/14 01:54:32;;;;;;;40.57;14.77;;;;;;;9.75;100.00;101441.38;5018207;28;20034;-76
2022/04/14 01:56:58;;;;;;;33.57;13.93;;;;;;;9.69;100.00;101443.63;5016495;28;20417;-76
2022/04/14 01:59:24;;;;;;;32.88;14.45;;;;;;;9.66;100.00;101443.06;5019912;28;20501;-76
2022/04/14 02:01:49;;;;;;;34.15;14.07;;;;;;;9.66;100.00;101443.88;5016805;28;20501;-76
2022/04/14 02:04:15;;;;;;;29.60;13.40;;;;;;;9.65;100.00;101436.88;5035213;28;20041;-76
2022/04/14 02:06:41;;;;;;;39.50;14.67;;;;;;;9.65;100.00;101444.88;5017481;28;20140;-76
2022/04/14 02:09:06;;;;;;;41.78;14.38;;;;;;;9.68;100.00;101438.44;5034106;28;20323;-76
2022/04/14 02:11:32;;;;;;;37.97;16.70;;;;;;;9.60;100.00;101435.59;5019923;28;20103;-76
2022/04/14 02:13:57;;;;;;;37.75;14.75;;;;;;;9.56;100.00;101437.72;5017676;28;20029;-76
2022/04/14 02:16:23;;;;;;;49.23;16.20;;;;;;;9.62;100.00;101439.84;5019803;28;20083;-76
2022/04/14 02:18:48;;;;;;;33.83;14.60;;;;;;;9.60;100.00;101440.94;4999732;28;20091;-76
2022/04/14 02:21:14;;;;;;;38.50;15.23;;;;;;;9.57;100.00;101428.72;5017992;28;20077;-76
2022/04/14 02:23:39;;;;;;;39.37;14.93;;;;;;;9.54;100.00;101436.19;5000899;28;20414;-77
2022/04/14 02:26:05;;;;;;;37.47;15.57;;;;;;;9.53;100.00;101443.34;5017298;28;20480;-77
2022/04/14 02:28:30;;;;;;;47.60;16.03;;;;;;;9.54;100.00;101450.34;5018477;28;20470;-77
2022/04/14 02:30:56;;;;;;;37.03;15.90;;;;;;;9.49;100.00;101453.41;4999249;28;20046;-77
2022/04/14 02:33:21;;;;;;;38.80;15.07;;;;;;;9.46;100.00;101453.72;5001617;28;20043;-77
2022/04/14 02:35:46;;;;;;;40.83;16.08;;;;;;;9.50;100.00;101457.78;5016439;28;20026;-77
2022/04/14 02:38:12;;;;;;;37.53;17.57;;;;;;;9.49;100.00;101453.41;5019680;28;20117;-76
2022/04/14 02:40:38;;;;;;;40.20;16.17;;;;;;;9.46;100.00;101460.88;5018891;28;20084;-77
2022/04/14 02:43:03;;;;;;;40.07;16.57;;;;;;;9.44;100.00;101462.81;5016631;28;20397;-77
2022/04/14 02:45:29;;;;;;;46.42;19.27;;;;;;;9.47;100.00;101465.19;5015816;28;20557;-77
2022/04/14 02:47:54;;;;;;;44.23;16.23;;;;;;;9.43;100.00;101469.94;5017899;28;20036;-76
2022/04/14 02:50:21;;;;;;;39.70;16.20;;;;;;;9.46;100.00;101469.69;5002308;28;20057;-76
2022/04/14 02:52:47;;;;;;;35.55;15.88;;;;;;;9.48;100.00;101466.88;5015910;28;20320;-77
2022/04/14 02:55:13;;;;;;;42.47;17.70;;;;;;;9.45;100.00;101478.66;5034983;28;20359;-76
2022/04/14 02:57:39;;;;;;;50.85;17.88;;;;;;;9.43;100.00;101475.28;5018014;28;20038;-76
2022/04/14 03:00:09;;;;;;;45.70;18.60;;;;;;;9.43;100.00;101479.78;5017381;28;20030;-76
2022/04/14 03:02:35;;;;;;;40.22;17.25;;;;;;;9.43;100.00;101464.63;5002913;28;20188;-77
2022/04/14 03:05:02;;;;;;;45.50;18.48;;;;;;;9.42;100.00;101473.63;5005033;28;20876;-77
2022/04/14 03:07:28;;;;;;;50.58;17.65;;;;;;;9.46;100.00;101476.84;5018525;28;20033;-77
2022/04/14 03:09:53;;;;;;;46.20;19.67;;;;;;;9.43;100.00;101474.44;5019718;28;20088;-78
2022/04/14 03:12:18;;;;;;;60.50;21.37;;;;;;;9.35;100.00;101467.16;5022338;28;20037;-78
2022/04/14 03:14:46;;;;;;;59.00;18.87;;;;;;;9.35;100.00;101477.81;5020620;28;20029;-77
2022/04/14 03:17:12;;;;;;;51.67;21.08;;;;;;;9.36;100.00;101473.31;5021953;28;20044;-76
2022/04/14 03:19:37;;;;;;;61.53;20.90;;;;;;;9.33;100.00;101476.25;5021317;28;20025;-77
2022/04/14 03:22:03;;;;;;;59.93;21.40;;;;;;;9.32;100.00;101477.22;5020945;28;20042;-77
2022/04/14 03:24:28;;;;;;;54.28;20.35;;;;;;;9.30;100.00;101483.53;5019371;28;20032;-78
2022/04/14 03:26:54;;;;;;;46.13;18.87;;;;;;;9.35;100.00;101490.28;5020887;28;20375;-77
2022/04/14 03:29:19;;;;;;;58.37;22.23;;;;;;;9.35;100.00;101484.97;5022352;28;20033;-77
2022/04/14 03:31:44;;;;;;;51.00;18.80;;;;;;;9.28;100.00;101485.50;5019760;28;20500;-77
2022/04/14 03:34:10;;;;;;;52.13;18.97;;;;;;;9.35;100.00;101480.47;5021258;28;20116;-77
2022/04/14 03:36:35;;;;;;;51.07;20.37;;;;;;;9.33;100.00;101484.25;5022262;28;20041;-77
2022/04/14 03:39:01;;;;;;;55.90;22.37;;;;;;;9.29;100.00;101483.66;5019887;28;20064;-77
2022/04/14 03:41:26;;;;;;;52.60;21.77;;;;;;;9.22;100.00;101478.03;5021099;28;20037;-77
2022/04/14 03:43:51;;;;;;;59.73;22.97;;;;;;;9.22;100.00;101471.88;5018828;28;20427;-77
2022/04/14 03:46:19;;;;;;;71.67;25.23;;;;;;;9.20;100.00;101471.16;5021002;28;20049;-77
2022/04/14 03:48:45;;;;;;;67.32;25.40;;;;;;;9.17;100.00;101477.59;5002848;28;20028;-77
2022/04/14 03:51:14;;;;;;;57.67;24.35;;;;;;;9.17;100.00;101495.41;5036374;28;20045;-76
2022/04/14 03:53:40;;;;;;;75.75;26.70;;;;;;;9.15;100.00;101487.56;5019756;28;20021;-77
2022/04/14 03:56:05;;;;;;;65.95;25.25;;;;;;;9.19;100.00;101494.31;5020805;28;20033;-77
2022/04/14 03:58:30;;;;;;;73.77;27.47;;;;;;;9.22;100.00;101502.00;5022592;28;20096;-77
2022/04/14 04:00:56;;;;;;;65.07;26.17;;;;;;;9.24;100.00;101496.56;5003993;28;20094;-76
2022/04/14 04:03:22;;;;;;;83.63;27.33;;;;;;;9.21;100.00;101497.69;5017507;28;20025;-77
2022/04/14 04:05:48;;;;;;;90.63;27.73;;;;;;;9.21;100.00;101504.84;5018766;28;20038;-77
2022/04/14 04:08:13;;;;;;;77.07;26.63;;;;;;;9.20;100.00;101500.47;5021229;28;20029;-77
2022/04/14 04:10:39;;;;;;;75.33;27.17;;;;;;;9.23;100.00;101500.22;5016804;28;20033;-77
2022/04/14 04:13:04;;;;;;;69.83;26.47;;;;;;;9.20;100.00;101505.78;5020976;28;20257;-77
2022/04/14 04:15:30;;;;;;;62.60;24.03;;;;;;;9.23;100.00;101516.19;5020066;28;20048;-77
2022/04/14 04:17:56;;;;;;;68.35;24.80;;;;;;;9.16;100.00;101510.56;5020215;28;20026;-77
2022/04/14 04:20:21;;;;;;;64.60;26.43;;;;;;;9.23;100.00;101516.19;5021499;28;20044;-77
2022/04/14 04:22:47;;;;;;;62.35;23.30;;;;;;;9.23;100.00;101510.88;5002710;28;20028;-77
2022/04/14 04:25:12;;;;;;;63.43;23.40;;;;;;;9.18;100.00;101510.44;5021648;28;20486;-76
2022/04/14 04:27:38;;;;;;;71.80;26.13;;;;;;;9.16;100.00;101515.91;5020592;28;20124;-75
2022/04/14 04:30:05;;;;;;;;;;;;;;;9.25;100.00;101531.06;5020123;28;20046;-76
2022/04/14 04:32:33;;;;;;;61.22;22.42;;;;;;;9.24;100.00;101528.53;5019690;28;20019;-76
2022/04/14 04:34:59;;;;;;;58.33;23.15;;;;;;;9.20;100.00;101522.66;4993867;28;20487;-76
2022/04/14 04:37:24;;;;;;;;;;;;;;;9.24;100.00;101529.38;5020531;28;20118;-76
2022/04/14 04:39:50;;;;;;;;;;;;;;;9.24;100.00;101534.69;5017850;28;19940;-76
2022/04/14 04:42:16;;;;;;;61.35;23.33;;;;;;;9.25;100.00;101536.41;5028057;28;19920;-75
2022/04/14 04:44:41;;;;;;;64.20;27.23;;;;;;;9.28;100.00;101549.44;5001860;28;20124;-76
2022/04/14 04:47:07;;;;;;;66.23;24.97;;;;;;;9.28;100.00;101546.78;5002088;28;20541;-76
2022/04/14 04:49:32;;;;;;;57.75;24.90;;;;;;;9.39;100.00;101552.97;5021036;28;20048;-76
2022/04/14 04:51:59;;;;;;;73.43;25.53;;;;;;;9.35;100.00;101540.94;5018435;28;20067;-76
2022/04/14 04:54:26;;;;;;;66.53;26.20;;;;;;;9.37;100.00;101558.47;5015894;28;20048;-76
2022/04/14 04:56:51;;;;;;;;;;;;;;;9.39;100.00;101552.97;5001404;28;20025;-76
2022/04/14 04:59:17;;;;;;;65.20;25.02;;;;;;;9.35;100.00;101555.09;5019794;28;20257;-76
2022/04/14 05:01:42;;;;;;;75.65;26.50;;;;;;;9.37;100.00;101555.81;5017350;28;20281;-76
2022/04/14 05:04:11;;;;;;;83.27;28.17;;;;;;;9.39;100.00;101559.19;5018915;28;20113;-76
2022/04/14 05:06:36;;;;;;;67.93;26.23;;;;;;;9.38;100.00;101556.63;5018897;28;20025;-76
2022/04/14 05:09:01;;;;;;;71.53;28.57;;;;;;;9.42;100.00;101564.22;5034129;28;20032;-76
2022/04/14 05:11:27;;;;;;;77.33;27.93;;;;;;;9.42;100.00;101560.72;5032777;28;20034;-76
2022/04/14 05:13:52;;;;;;;78.20;28.73;;;;;;;9.38;100.00;101551.31;5000255;28;20034;-76
2022/04/14 05:16:18;;;;;;;64.37;26.30;;;;;;;9.47;100.00;101569.16;5020497;28;20287;-76
2022/04/14 05:18:44;;;;;;;81.40;30.00;;;;;;;9.52;100.00;101569.59;5017629;28;20040;-76
2022/04/14 05:21:09;;;;;;;75.70;27.77;;;;;;;9.50;100.00;101572.41;5018311;28;20026;-76
2022/04/14 05:23:34;;;;;;;78.80;28.67;;;;;;;9.50;100.00;101576.88;5019108;28;20049;-76
2022/04/14 05:26:00;;;;;;;83.83;29.77;;;;;;;9.48;100.00;101576.16;5016362;28;20033;-76
2022/04/14 05:28:25;;;;;;;73.53;29.27;;;;;;;9.58;100.00;101582.38;4999219;28;20029;-76
2022/04/14 05:30:51;;;;;;;82.90;31.48;;;;;;;9.59;100.00;101585.88;5015930;28;20040;-75
2022/04/14 05:33:16;;;;;;;87.13;32.70;;;;;;;9.59;100.00;101585.88;5002725;28;20041;-75
2022/04/14 05:35:44;;;;;;;73.10;31.60;;;;;;;9.61;100.00;101594.59;5017408;28;20025;-76
2022/04/14 05:38:10;;;;;;;82.75;32.72;;;;;;;9.66;100.00;101605.69;5019599;28;20065;-76
2022/04/14 05:40:41;;;;;;;81.90;30.63;;;;;;;9.66;100.00;101603.03;5000976;28;20112;-76
2022/04/14 05:43:14;;;;;;;78.80;33.00;;;;;;;9.66;100.00;101606.53;5033984;28;20293;-75
2022/04/14 05:45:40;;;;;;;86.53;33.78;;;;;;;9.76;100.00;101611.88;5017683;28;20037;-76
2022/04/14 05:48:05;;;;;;;87.67;31.20;;;;;;;9.78;100.00;101614.44;5018134;28;20060;-76
2022/04/14 05:50:30;;;;;;;86.83;34.30;;;;;;;9.83;100.00;101621.06;5011758;28;20180;-76
2022/04/14 05:52:56;;;;;;;79.30;32.03;;;;;;;9.92;100.00;101630.03;5017410;28;20041;-75
2022/04/14 05:55:22;;;;;;;82.43;34.72;;;;;;;9.84;100.00;101617.41;5016959;28;20491;-75
2022/04/14 05:57:47;;;;;;;68.47;30.23;;;;;;;9.97;100.00;101635.81;5017128;28;20104;-76
2022/04/14 06:00:13;;;;;;;75.70;30.90;;;;;;;10.18;100.00;101642.88;5013789;28;20545;-76
2022/04/14 06:02:39;;;;;;;72.43;31.13;;;;;;;10.14;100.00;101629.81;5012570;28;20483;-75
2022/04/14 06:05:06;;;;;;;74.85;31.52;;;;;;;10.10;100.00;101617.72;5014598;28;20770;-75
2022/04/14 06:07:31;;;;;;;76.22;30.30;;;;;;;10.09;100.00;101602.72;5016214;28;20077;-76
2022/04/14 06:09:56;;;;;;;79.27;32.97;;;;;;;10.01;100.00;101572.38;5029761;28;20092;-75
2022/04/14 06:12:21;;;;;;;71.73;30.70;;;;;;;10.03;100.00;101573.91;4998753;28;20049;-76
2022/04/14 06:14:47;;;;;;;70.13;30.20;;;;;;;10.11;100.00;101575.88;5014133;28;20057;-75
2022/04/14 06:17:13;;;;;;;78.85;31.73;;;;;;;9.98;100.00;101549.47;4999596;28;20083;-78
2022/04/14 06:19:38;;;;;;;79.03;30.77;;;;;;;10.01;100.00;101541.19;5016471;28;20033;-75
2022/04/14 06:22:04;;;;;;;73.53;33.08;;;;;;;9.99;100.00;101535.16;5021855;28;20505;-75
2022/04/14 06:24:29;;;;;;;74.90;31.47;;;;;;;10.03;100.00;101533.06;5016013;28;20065;-78
2022/04/14 06:26:55;;;;;;;70.57;32.47;;;;;;;10.02;100.00;101531.34;4999396;28;20025;-76
2022/04/14 06:29:20;;;;;;;80.03;33.30;;;;;;;10.06;100.00;101530.09;5012666;28;20037;-75
2022/04/14 06:31:45;;;;;;;79.33;33.70;;;;;;;10.07;100.00;101537.97;5013102;28;20454;-76
2022/04/14 06:34:11;;;;;;;78.23;34.00;;;;;;;10.11;100.00;101528.72;5016302;28;20171;-78
2022/04/14 06:36:36;;;;;;;81.03;35.80;;;;;;;10.15;100.00;101537.28;5033499;28;20596;-75
2022/04/14 06:39:02;;;;;;;86.77;35.13;;;;;;;10.19;100.00;101541.34;5000027;28;20371;-76
2022/04/14 06:41:27;;;;;;;88.57;34.90;;;;;;;10.20;100.00;101542.19;5000319;28;20026;-75
2022/04/14 06:43:54;;;;;;;82.23;35.83;;;;;;;10.23;100.00;101544.56;5015939;28;20033;-75
2022/04/14 06:46:19;;;;;;;79.60;34.83;;;;;;;10.26;100.00;101547.81;5001800;28;20390;-78
2022/04/14 06:48:44;;;;;;;80.03;33.37;;;;;;;10.31;100.00;101545.59;5002677;28;20029;-74
2022/04/14 06:51:11;;;;;;;85.25;36.08;;;;;;;10.32;100.00;101541.94;5036248;28;20168;-75
2022/04/14 06:53:37;;;;;;;76.60;36.20;;;;;;;10.40;100.00;101543.06;5019877;28;20575;-74
2022/04/14 06:56:04;;;;;;;83.88;35.10;;;;;;;10.38;100.00;101524.50;5019940;28;20017;-75
2022/04/14 06:58:29;;;;;;;86.30;38.00;;;;;;;10.40;100.00;101519.03;5036846;28;20402;-76
2022/04/14 07:00:55;;;;;;;76.33;33.57;;;;;;;10.42;100.00;101511.72;5021224;28;20013;-76
2022/04/14 07:03:26;;;;;;;76.27;36.10;;;;;;;10.28;100.00;101492.50;5018004;28;20095;-76
2022/04/14 07:05:54;;;;;;;83.75;37.85;;;;;;;10.38;100.00;101495.16;5017585;28;20045;-76
2022/04/14 07:08:21;;;;;;;75.88;34.13;;;;;;;10.50;100.00;101494.00;4995147;28;20071;-76
2022/04/14 07:10:46;;;;;;;;;;;;;;;10.54;100.00;101495.41;5028144;28;20506;-76
2022/04/14 07:13:11;;;;;;;77.05;33.50;;;;;;;10.61;100.00;101478.81;5017081;28;19963;-76
2022/04/14 07:15:37;;;;;;;66.37;32.43;;;;;;;10.75;100.00;101483.69;5001734;28;20490;-76
2022/04/14 07:18:02;;;;;;;67.13;32.90;;;;;;;10.86;100.00;101479.97;5016501;28;20101;-77
2022/04/14 07:20:30;;;;;;;70.53;32.70;;;;;;;10.79;100.00;101463.69;5019695;28;20061;-75
2022/04/14 07:22:58;;;;;;;66.65;34.75;;;;;;;10.75;100.00;101452.47;5019192;28;20107;-75
2022/04/14 07:25:24;;;;;;;66.53;31.17;;;;;;;10.87;100.00;101453.13;5016178;28;20037;-76
2022/04/14 07:27:49;;;;;;;65.93;31.15;;;;;;;10.85;100.00;101441.75;5031043;28;20018;-77
2022/04/14 07:30:15;;;;;;;64.15;31.38;;;;;;;10.86;100.00;101446.09;5018298;28;20636;-75
2022/04/14 07:32:45;;;;;;;64.57;33.27;;;;;;;10.79;100.00;101431.63;5016562;28;20410;-76
2022/04/14 07:35:12;;;;;;;67.63;32.20;;;;;;;10.74;100.00;101424.06;5022416;28;20384;-76
2022/04/14 07:37:38;;;;;;;67.78;33.75;;;;;;;10.74;100.00;101413.38;5029129;28;20054;-75
2022/04/14 07:40:05;;;;;;;62.42;31.48;;;;;;;10.73;100.00;101424.22;5015661;28;20084;-76
2022/04/14 07:42:35;;;;;;;62.83;30.85;;;;;;;10.78;100.00;101421.94;5016619;28;20033;-76
2022/04/14 07:45:02;;;;;;;64.85;30.70;;;;;;;10.81;100.00;101418.97;5012821;28;20069;-76
2022/04/14 07:47:27;;;;;;;61.67;30.42;;;;;;;10.73;100.00;101416.22;5017578;28;20052;-75
2022/04/14 07:49:53;;;;;;;61.97;29.90;;;;;;;10.77;100.00;101414.94;5023618;28;20132;-76
2022/04/14 07:52:18;;;;;;;66.83;30.60;;;;;;;10.73;100.00;101411.72;5009961;28;20041;-76
2022/04/14 07:54:44;;;;;;;57.60;28.80;;;;;;;10.76;100.00;101406.06;5011831;28;20120;-76
2022/04/14 07:57:10;;;;;;;56.72;28.60;;;;;;;10.69;100.00;101410.31;5015591;28;20095;-76
2022/04/14 07:59:36;;;;;;;60.88;28.45;;;;;;;10.82;100.00;101404.66;5017619;28;20437;-75
2022/04/14 08:02:01;;;;;;;56.03;27.60;;;;;;;10.80;100.00;101403.94;5014631;28;20036;-76
2022/04/14 08:04:27;;;;;;;55.92;26.77;;;;;;;10.78;100.00;101413.94;5013181;28;20034;-76
2022/04/14 08:06:53;;;;;;;57.00;27.60;;;;;;;10.68;100.00;101397.97;5012253;28;20062;-76
2022/04/14 08:09:19;;;;;;;64.07;30.40;;;;;;;10.61;100.00;101414.72;5033212;28;20753;-76
2022/04/14 08:11:45;;;;;;;;;;;;;;;10.70;100.00;101419.16;5015798;28;20032;-75
2022/04/14 08:14:11;;;;;;;51.13;25.17;;;;;;;10.78;100.00;101414.78;5035353;28;19970;-75
2022/04/14 08:16:36;;;;;;;50.53;27.30;;;;;;;10.80;100.00;101417.31;5017451;28;20017;-76
2022/04/14 08:19:02;;;;;;;58.67;27.73;;;;;;;10.84;100.00;101418.69;5014748;28;20082;-75
2022/04/14 08:21:27;;;;;;;56.80;29.63;;;;;;;10.88;100.00;101414.72;5012670;28;20450;-76
2022/04/14 08:23:53;;;;;;;52.40;26.93;;;;;;;11.03;100.00;101411.56;5013033;28;20599;-76
2022/04/14 08:26:19;;;;;;;53.95;28.55;;;;;;;11.23;100.00;101412.28;5016744;28;20037;-79
2022/04/14 08:28:47;;;;;;;49.42;26.55;;;;;;;11.66;100.00;101405.34;5017392;28;20044;-79
2022/04/14 08:31:14;;;;;;;53.50;26.98;;;;;;;12.01;100.00;101389.31;5012602;28;20034;-75
2022/04/14 08:33:40;;;;;;;46.92;26.30;;;;;;;12.44;100.00;101397.44;5012854;28;20675;-76
2022/04/14 08:36:12;;;;;;;51.15;27.52;;;;;;;12.84;100.00;101379.88;5014652;28;20068;-75
2022/04/14 08:38:43;;;;;;;46.83;26.45;;;;;;;13.47;100.00;101371.34;5017397;28;20082;-75
2022/04/14 08:41:10;;;;;;;52.28;28.17;;;;;;;14.07;100.00;101358.56;5012552;28;20150;-76
2022/04/14 08:43:36;;;;;;;48.00;25.60;;;;;;;14.08;100.00;101333.41;5012372;28;20029;-75
2022/04/14 08:46:03;;;;;;;45.15;25.67;;;;;;;14.46;100.00;101317.50;5020460;28;20048;-76
2022/04/14 08:48:30;;;;;;;43.42;24.55;;;;;;;14.59;100.00;101298.19;5012197;28;20399;-76
2022/04/14 08:50:56;;;;;;;43.95;26.15;;;;;;;15.04;100.00;101286.66;5019841;28;20931;-76
2022/04/14 08:53:26;;;;;;;46.33;25.40;;;;;;;14.94;100.00;101238.50;5013519;28;20033;-76
2022/04/14 08:55:52;;;;;;;48.50;26.60;;;;;;;14.94;100.00;101226.91;5015243;28;20042;-77
2022/04/14 08:58:19;;;;;;;45.95;27.58;;;;;;;14.81;100.00;101215.91;4999290;28;20462;-76
2022/04/14 09:00:45;;;;;;;40.60;24.90;;;;;;;14.76;100.00;101241.47;5015149;28;20207;-76
2022/04/14 09:03:15;;;;;;;40.08;23.88;;;;;;;15.06;100.00;101251.53;5004030;28;20029;-75
2022/04/14 09:05:40;;;;;;;43.03;25.30;;;;;;;15.23;100.00;101233.41;4999441;28;20041;-76
2022/04/14 09:08:06;;;;;;;33.10;19.83;;;;;;;15.90;100.00;101243.38;4996687;28;20044;-76
2022/04/14 09:10:31;;;;;;;40.55;23.83;;;;;;;16.16;100.00;101199.81;5011783;28;20129;-76
2022/04/14 09:12:58;;;;;;;42.93;23.27;;;;;;;16.37;100.00;101166.69;5012521;28;20030;-75
2022/04/14 09:15:24;;;;;;;32.80;20.17;;;;;;;16.21;100.00;101144.31;5023458;28;20514;-76
2022/04/14 09:17:49;;;;;;;31.83;20.17;;;;;;;16.11;100.00;101137.56;5015170;28;20013;-76
2022/04/14 09:20:42;;;;;;;36.50;24.07;;;;;;;15.92;100.00;101133.59;5011134;28;20042;-76
2022/04/14 09:23:25;;;;;;;34.20;21.73;;;;;;;16.24;100.00;101126.94;5014740;28;20426;-75
2022/04/14 09:26:13;;;;;;;43.70;24.88;;;;;;;15.86;100.00;101118.22;5015387;28;20127;-76
2022/04/14 09:28:39;;;;;;;35.10;23.00;;;;;;;16.01;100.00;101117.19;5014584;28;20129;-77
2022/04/14 09:31:11;;;;;;;36.83;21.83;;;;;;;16.04;100.00;101087.16;5013899;28;20056;-77
2022/04/14 09:33:48;;;;;;;40.83;24.20;;;;;;;15.69;100.00;101091.47;5024080;28;20447;-76
2022/04/14 09:36:18;;;;;;;38.72;23.85;;;;;;;15.73;100.00;101119.72;5020482;28;20046;-76
2022/04/14 09:38:52;;;;;;;40.15;23.77;;;;;;;15.11;100.00;101115.50;5019621;28;20033;-76
2022/04/14 09:41:33;;;;;;;35.28;23.23;;;;;;;15.26;100.00;101144.25;4987092;28;20049;-76
2022/04/14 09:44:01;;;;;;;41.65;25.00;;;;;;;15.44;100.00;101160.06;5008820;28;20128;-76
2022/04/14 09:46:26;;;;;;;35.42;21.55;;;;;;;15.76;100.00;101180.44;5000145;28;20022;-77
2022/04/14 09:49:01;;;;;;;37.50;22.67;;;;;;;15.52;100.00;101143.81;5002446;28;20030;-78
2022/04/14 09:51:26;;;;;;;35.55;22.23;;;;;;;15.82;100.00;101141.97;4998287;28;20038;-76
2022/04/14 09:54:02;;;;;;;37.73;21.80;;;;;;;15.84;100.00;101126.47;5014406;28;20527;-77
2022/04/14 09:56:48;;;;;;;31.23;20.38;;;;;;;15.89;100.00;101126.75;5033373;28;20121;-77
2022/04/14 09:59:16;;;;;;;34.80;19.63;;;;;;;16.65;100.00;101127.16;5001517;28;20125;-77
2022/04/14 10:01:42;;;;;;;33.20;20.02;;;;;;;17.34;96.60;101097.84;5011870;28;20037;-77
2022/04/14 10:04:38;;;;;;;28.65;18.67;;;;;;;17.03;92.44;101010.09;5018234;28;20038;-77
2022/04/14 10:07:15;;;;;;;29.10;18.23;;;;;;;17.27;90.15;100989.84;4991744;28;20050;-77
2022/04/14 10:09:48;;;;;;;25.42;16.75;;;;;;;18.11;87.50;101027.31;5022531;28;20048;-76
2022/04/14 10:12:20;;;;;;;28.60;17.15;;;;;;;18.11;84.94;100978.69;5022520;28;20088;-77
2022/04/14 10:15:08;;;;;;;29.50;16.60;;;;;;;17.96;81.09;100878.13;5016489;28;20046;-76
2022/04/14 10:17:38;;;;;;;24.10;15.90;;;;;;;18.97;79.07;100934.53;5009820;28;20034;-77
2022/04/14 10:20:09;;;;;;;27.27;16.73;;;;;;;18.26;78.07;100853.34;5038978;28;20587;-77
2022/04/14 10:22:37;;;;;;;28.27;17.70;;;;;;;18.01;79.04;100854.00;5016162;28;20096;-77
2022/04/14 10:25:04;;;;;;;28.33;17.58;;;;;;;18.42;80.01;100944.81;5017825;28;20022;-77
2022/04/14 10:27:30;;;;;;;;;;;;;;;18.69;78.44;100913.16;5022565;28;20041;-77
2022/04/14 10:29:56;;;;;;;23.80;15.88;;;;;;;18.75;75.32;100824.91;5025528;28;19996;-77
2022/04/14 10:32:21;;;;;;;30.90;18.92;;;;;;;18.92;76.03;100877.53;5027925;28;20124;-77
2022/04/14 10:34:48;;;;;;;24.05;14.73;;;;;;;19.08;73.84;100830.22;5001320;28;20029;-76
2022/04/14 10:37:21;;;;;;;22.85;15.40;;;;;;;19.56;73.68;100896.56;5019842;28;20083;-76
2022/04/14 10:39:51;;;;;;;20.95;15.18;;;;;;;18.60;71.37;100714.34;5011237;28;20498;-77
2022/04/14 10:42:23;;;;;;;19.23;13.18;;;;;;;19.50;73.08;100883.88;5015711;28;20511;-77
2022/04/14 10:44:50;;;;;;;18.23;13.55;;;;;;;19.60;67.09;100667.63;5017236;28;20038;-77
2022/04/14 10:47:43;;;;;;;22.63;13.65;;;;;;;20.08;68.92;100837.63;5019105;28;20053;-78
2022/04/14 10:50:28;;;;;;;17.75;12.63;;;;;;;20.09;65.33;100713.78;5017593;28;20037;-78
2022/04/14 10:53:19;;;;;;;17.77;12.43;;;;;;;20.14;65.14;100700.41;5036284;28;20068;-77
2022/04/14 10:55:47;;;;;;;19.48;12.32;;;;;;;20.12;65.20;100702.50;4998944;28;20076;-78
2022/04/14 10:58:38;;;;;;;17.80;11.63;;;;;;;20.28;65.67;100741.72;5024500;28;20033;-78
2022/04/14 11:01:04;;;;;;;15.10;11.65;;;;;;;19.26;66.59;100667.09;5018679;28;20558;-77
2022/04/14 11:03:50;;;;;;;13.63;10.18;;;;;;;18.75;70.82;100781.66;5015881;28;20025;-77
2022/04/14 11:06:34;;;;;;;;;;;;;;;18.73;70.21;100770.22;5018207;28;20853;-77
2022/04/14 11:09:00;;;;;;;16.38;11.27;;;;;;;17.44;74.50;100766.34;5021872;28;19932;-78